sensor_id;sensor_type;location;lat;lon;timestamp;P1;durP1;ratioP1;P2;durP2;ratioP2
74753;SDS011;63271;53.340;-6.260;2023-11-22T07:01:23;2.22;;;0.90;;
74753;SDS011;63271;53.340;-6.260;2023-11-22T07:03:52;1.92;;;0.60;;
74753;SDS011;63271;53.340;-6.260;2023-11-22T07:06:22;2.85;;;0.52;;
74753;SDS011;63271;53.340;-6.260;2023-11-22T07:08:55;7.18;;;0.63;;
74753;SDS011;63271;53.340;-6.260;2023-11-22T07:11:25;1.40;;;0.57;;
74753;SDS011;63271;53.340;-6.260;2023-11-22T07:13:57;5.43;;;0.80;;
74753;SDS011;63271;53.340;-6.260;2023-11-22T07:16:29;1.63;;;0.73;;
74753;SDS011;63271;53.340;-6.260;2023-11-22T07:18:57;4.15;;;0.88;;
74753;SDS011;63271;53.340;-6.260;2023-11-22T07:21:22;2.20;;;0.75;;
74753;SDS011;63271;53.340;-6.260;2023-11-22T07:23:50;4.18;;;1.05;;
74753;SDS011;63271;53.340;-6.260;2023-11-22T07:26:18;1.52;;;0.68;;
74753;SDS011;63271;53.340;-6.260;2023-11-22T07:28:44;4.22;;;0.90;;
74753;SDS011;63271;53.340;-6.260;2023-11-22T07:31:12;2.10;;;0.50;;
74753;SDS011;63271;53.340;-6.260;2023-11-22T07:33:37;3.78;;;0.80;;
74753;SDS011;63271;53.340;-6.260;2023-11-22T07:36:08;3.72;;;0.80;;
74753;SDS011;63271;53.340;-6.260;2023-11-22T07:38:39;5.65;;;0.82;;
74753;SDS011;63271;53.340;-6.260;2023-11-22T07:41:10;4.13;;;0.80;;
74753;SDS011;63271;53.340;-6.260;2023-11-22T07:43:35;3.17;;;1.23;;
74753;SDS011;63271;53.340;-6.260;2023-11-22T07:46:09;4.25;;;0.70;;
74753;SDS011;63271;53.340;-6.260;2023-11-22T07:48:41;5.20;;;1.00;;
74753;SDS011;63271;53.340;-6.260;2023-11-22T07:51:11;5.07;;;1.70;;
74753;SDS011;63271;53.340;-6.260;2023-11-22T07:53:41;3.85;;;0.90;;
74753;SDS011;63271;53.340;-6.260;2023-11-22T07:56:09;2.35;;;0.77;;
74753;SDS011;63271;53.340;-6.260;2023-11-22T07:58:36;3.03;;;1.00;;
74753;SDS011;63271;53.340;-6.260;2023-11-22T08:01:02;2.58;;;0.75;;
74753;SDS011;63271;53.340;-6.260;2023-11-22T08:03:31;3.10;;;0.95;;
74753;SDS011;63271;53.340;-6.260;2023-11-22T08:06:01;3.13;;;0.80;;
74753;SDS011;63271;53.340;-6.260;2023-11-22T08:08:27;2.72;;;0.77;;
74753;SDS011;63271;53.340;-6.260;2023-11-22T08:10:55;5.55;;;1.80;;
74753;SDS011;63271;53.340;-6.260;2023-11-22T08:13:21;2.83;;;0.98;;
74753;SDS011;63271;53.340;-6.260;2023-11-22T08:15:48;2.92;;;0.80;;
74753;SDS011;63271;53.340;-6.260;2023-11-22T08:18:18;1.95;;;0.60;;
74753;SDS011;63271;53.340;-6.260;2023-11-22T08:20:47;3.15;;;1.02;;
74753;SDS011;63271;53.340;-6.260;2023-11-22T08:23:15;2.65;;;0.77;;
74753;SDS011;63271;53.340;-6.260;2023-11-22T08:25:43;2.83;;;0.73;;
74753;SDS011;63271;53.340;-6.260;2023-11-22T08:28:08;2.83;;;0.65;;
74753;SDS011;63271;53.340;-6.260;2023-11-22T08:30:36;1.02;;;0.63;;
74753;SDS011;63271;53.340;-6.260;2023-11-22T08:33:02;5.30;;;1.75;;
74753;SDS011;63271;53.340;-6.260;2023-11-22T08:35:30;2.05;;;0.75;;
74753;SDS011;63271;53.340;-6.260;2023-11-22T08:37:55;1.95;;;0.50;;
74753;SDS011;63271;53.340;-6.260;2023-11-22T08:40:22;5.13;;;0.93;;
74753;SDS011;63271;53.340;-6.260;2023-11-22T08:42:50;1.40;;;0.65;;
74753;SDS011;63271;53.340;-6.260;2023-11-22T08:45:18;1.83;;;0.80;;
74753;SDS011;63271;53.340;-6.260;2023-11-22T08:47:44;3.00;;;0.80;;
74753;SDS011;63271;53.340;-6.260;2023-11-22T08:50:11;2.70;;;0.82;;
74753;SDS011;63271;53.340;-6.260;2023-11-22T08:52:42;3.28;;;0.93;;
74753;SDS011;63271;53.340;-6.260;2023-11-22T08:55:11;2.45;;;0.60;;
74753;SDS011;63271;53.340;-6.260;2023-11-22T08:57:37;1.77;;;0.63;;
74753;SDS011;63271;53.340;-6.260;2023-11-22T09:00:03;2.80;;;0.88;;
74753;SDS011;63271;53.340;-6.260;2023-11-22T09:02:34;5.57;;;0.90;;
74753;SDS011;63271;53.340;-6.260;2023-11-22T09:05:01;2.00;;;0.70;;
74753;SDS011;63271;53.340;-6.260;2023-11-22T09:07:31;3.58;;;1.27;;
74753;SDS011;63271;53.340;-6.260;2023-11-22T09:09:59;6.07;;;0.85;;
74753;SDS011;63271;53.340;-6.260;2023-11-22T09:12:27;3.25;;;0.82;;
74753;SDS011;63271;53.340;-6.260;2023-11-22T09:14:52;2.35;;;0.90;;
74753;SDS011;63271;53.340;-6.260;2023-11-22T09:17:22;3.90;;;0.80;;
74753;SDS011;63271;53.340;-6.260;2023-11-22T09:19:50;2.35;;;0.77;;
74753;SDS011;63271;53.340;-6.260;2023-11-22T09:22:18;4.00;;;0.80;;
74753;SDS011;63271;53.340;-6.260;2023-11-22T09:24:51;5.55;;;1.15;;
74753;SDS011;63271;53.340;-6.260;2023-11-22T09:27:16;8.70;;;0.95;;
74753;SDS011;63271;53.340;-6.260;2023-11-22T09:29:45;10.65;;;0.95;;
74753;SDS011;63271;53.340;-6.260;2023-11-22T09:32:11;11.90;;;0.98;;
74753;SDS011;63271;53.340;-6.260;2023-11-22T09:34:38;10.23;;;1.17;;
74753;SDS011;63271;53.340;-6.260;2023-11-22T09:37:05;9.52;;;1.35;;
74753;SDS011;63271;53.340;-6.260;2023-11-22T09:39:33;4.43;;;0.80;;
74753;SDS011;63271;53.340;-6.260;2023-11-22T09:41:59;10.02;;;1.60;;
74753;SDS011;63271;53.340;-6.260;2023-11-22T09:44:26;11.55;;;1.00;;
74753;SDS011;63271;53.340;-6.260;2023-11-22T09:46:53;3.67;;;0.77;;
74753;SDS011;63271;53.340;-6.260;2023-11-22T09:49:25;8.98;;;0.80;;
74753;SDS011;63271;53.340;-6.260;2023-11-22T09:51:55;12.68;;;1.60;;
74753;SDS011;63271;53.340;-6.260;2023-11-22T09:54:28;8.32;;;1.10;;
74753;SDS011;63271;53.340;-6.260;2023-11-22T09:56:55;11.65;;;1.30;;
74753;SDS011;63271;53.340;-6.260;2023-11-22T09:59:22;5.95;;;0.90;;
74753;SDS011;63271;53.340;-6.260;2023-11-22T10:01:52;8.73;;;0.90;;
74753;SDS011;63271;53.340;-6.260;2023-11-22T10:04:17;5.20;;;1.13;;
74753;SDS011;63271;53.340;-6.260;2023-11-22T10:06:49;6.25;;;0.85;;
74753;SDS011;63271;53.340;-6.260;2023-11-22T10:09:20;11.38;;;1.70;;
74753;SDS011;63271;53.340;-6.260;2023-11-22T10:11:51;9.63;;;1.20;;
74753;SDS011;63271;53.340;-6.260;2023-11-22T10:14:23;9.13;;;1.10;;
74753;SDS011;63271;53.340;-6.260;2023-11-22T10:16:58;9.38;;;1.13;;
74753;SDS011;63271;53.340;-6.260;2023-11-22T10:19:24;7.53;;;0.88;;
74753;SDS011;63271;53.340;-6.260;2023-11-22T10:22:06;9.95;;;2.20;;
74753;SDS011;63271;53.340;-6.260;2023-11-22T10:24:32;10.65;;;1.10;;
74753;SDS011;63271;53.340;-6.260;2023-11-22T10:27:02;4.85;;;0.80;;
74753;SDS011;63271;53.340;-6.260;2023-11-22T10:29:30;12.75;;;1.02;;
74753;SDS011;63271;53.340;-6.260;2023-11-22T10:31:56;6.85;;;1.10;;
74753;SDS011;63271;53.340;-6.260;2023-11-22T10:34:24;8.50;;;1.40;;
74753;SDS011;63271;53.340;-6.260;2023-11-22T10:36:53;19.42;;;1.52;;
74753;SDS011;63271;53.340;-6.260;2023-11-22T10:39:22;17.15;;;1.83;;
74753;SDS011;63271;53.340;-6.260;2023-11-22T10:41:53;10.13;;;1.23;;
74753;SDS011;63271;53.340;-6.260;2023-11-22T10:44:20;11.55;;;1.35;;
74753;SDS011;63271;53.340;-6.260;2023-11-22T10:46:47;3.38;;;1.08;;
74753;SDS011;63271;53.340;-6.260;2023-11-22T10:49:16;11.18;;;1.00;;
74753;SDS011;63271;53.340;-6.260;2023-11-22T10:51:41;17.08;;;1.55;;
74753;SDS011;63271;53.340;-6.260;2023-11-22T10:54:17;16.80;;;1.27;;
74753;SDS011;63271;53.340;-6.260;2023-11-22T10:56:46;11.02;;;1.30;;
74753;SDS011;63271;53.340;-6.260;2023-11-22T10:59:19;15.00;;;1.48;;
74753;SDS011;63271;53.340;-6.260;2023-11-22T11:01:47;15.13;;;1.60;;
74753;SDS011;63271;53.340;-6.260;2023-11-22T11:04:23;16.25;;;1.15;;
74753;SDS011;63271;53.340;-6.260;2023-11-22T11:07:03;11.73;;;1.13;;
74753;SDS011;63271;53.340;-6.260;2023-11-22T11:09:28;4.63;;;0.98;;
74753;SDS011;63271;53.340;-6.260;2023-11-22T11:11:59;9.38;;;1.50;;
74753;SDS011;63271;53.340;-6.260;2023-11-22T11:14:28;19.77;;;1.60;;
74753;SDS011;63271;53.340;-6.260;2023-11-22T11:16:56;4.75;;;0.90;;
74753;SDS011;63271;53.340;-6.260;2023-11-22T11:19:24;14.43;;;2.15;;
74753;SDS011;63271;53.340;-6.260;2023-11-22T11:21:50;9.75;;;1.63;;
74753;SDS011;63271;53.340;-6.260;2023-11-22T11:24:16;19.02;;;2.45;;
74753;SDS011;63271;53.340;-6.260;2023-11-22T11:26:47;12.75;;;1.90;;
74753;SDS011;63271;53.340;-6.260;2023-11-22T11:29:30;9.23;;;1.80;;
74753;SDS011;63271;53.340;-6.260;2023-11-22T11:32:02;7.95;;;1.88;;
74753;SDS011;63271;53.340;-6.260;2023-11-22T11:34:28;13.13;;;2.17;;
74753;SDS011;63271;53.340;-6.260;2023-11-22T11:36:56;14.27;;;2.10;;
74753;SDS011;63271;53.340;-6.260;2023-11-22T11:39:26;11.40;;;2.65;;
74753;SDS011;63271;53.340;-6.260;2023-11-22T11:42:07;8.50;;;3.03;;
74753;SDS011;63271;53.340;-6.260;2023-11-22T11:44:33;13.93;;;2.63;;
74753;SDS011;63271;53.340;-6.260;2023-11-22T11:47:10;14.30;;;2.33;;
74753;SDS011;63271;53.340;-6.260;2023-11-22T11:49:38;14.77;;;2.60;;
74753;SDS011;63271;53.340;-6.260;2023-11-22T11:52:04;8.27;;;2.45;;
74753;SDS011;63271;53.340;-6.260;2023-11-22T11:54:32;10.68;;;2.35;;
74753;SDS011;63271;53.340;-6.260;2023-11-22T11:56:58;19.08;;;2.90;;
74753;SDS011;63271;53.340;-6.260;2023-11-22T11:59:27;11.70;;;1.98;;
74753;SDS011;63271;53.340;-6.260;2023-11-22T12:01:59;17.88;;;2.63;;
74753;SDS011;63271;53.340;-6.260;2023-11-22T12:04:30;10.25;;;2.50;;
74753;SDS011;63271;53.340;-6.260;2023-11-22T12:06:59;5.28;;;2.40;;
74753;SDS011;63271;53.340;-6.260;2023-11-22T12:09:25;10.93;;;2.55;;
74753;SDS011;63271;53.340;-6.260;2023-11-22T12:11:51;13.07;;;2.17;;
74753;SDS011;63271;53.340;-6.260;2023-11-22T12:14:20;10.07;;;2.78;;
74753;SDS011;63271;53.340;-6.260;2023-11-22T12:16:50;9.90;;;2.40;;
74753;SDS011;63271;53.340;-6.260;2023-11-22T12:19:25;8.90;;;2.92;;
74753;SDS011;63271;53.340;-6.260;2023-11-22T12:21:52;12.40;;;2.85;;
74753;SDS011;63271;53.340;-6.260;2023-11-22T12:24:23;14.73;;;2.65;;
74753;SDS011;63271;53.340;-6.260;2023-11-22T12:26:52;11.10;;;2.63;;
74753;SDS011;63271;53.340;-6.260;2023-11-22T12:29:20;12.05;;;2.80;;
74753;SDS011;63271;53.340;-6.260;2023-11-22T12:31:46;10.85;;;2.47;;
74753;SDS011;63271;53.340;-6.260;2023-11-22T12:34:14;10.18;;;2.60;;
74753;SDS011;63271;53.340;-6.260;2023-11-22T12:36:40;10.13;;;2.75;;
74753;SDS011;63271;53.340;-6.260;2023-11-22T12:39:09;14.85;;;3.15;;
74753;SDS011;63271;53.340;-6.260;2023-11-22T12:41:48;9.82;;;2.63;;
74753;SDS011;63271;53.340;-6.260;2023-11-22T12:44:16;11.88;;;2.88;;
74753;SDS011;63271;53.340;-6.260;2023-11-22T12:46:45;9.45;;;2.75;;
74753;SDS011;63271;53.340;-6.260;2023-11-22T12:49:42;8.55;;;2.53;;
74753;SDS011;63271;53.340;-6.260;2023-11-22T12:52:10;11.45;;;2.60;;
74753;SDS011;63271;53.340;-6.260;2023-11-22T12:54:39;12.20;;;2.80;;
74753;SDS011;63271;53.340;-6.260;2023-11-22T12:57:10;10.65;;;2.65;;
74753;SDS011;63271;53.340;-6.260;2023-11-22T12:59:37;14.85;;;2.90;;
74753;SDS011;63271;53.340;-6.260;2023-11-22T13:02:08;10.75;;;2.97;;
74753;SDS011;63271;53.340;-6.260;2023-11-22T13:04:34;9.93;;;2.10;;
74753;SDS011;63271;53.340;-6.260;2023-11-22T13:07:02;6.88;;;2.33;;
74753;SDS011;63271;53.340;-6.260;2023-11-22T13:09:27;9.70;;;2.67;;
74753;SDS011;63271;53.340;-6.260;2023-11-22T13:11:54;8.77;;;2.20;;
74753;SDS011;63271;53.340;-6.260;2023-11-22T13:14:23;9.52;;;2.42;;
74753;SDS011;63271;53.340;-6.260;2023-11-22T13:16:55;14.68;;;2.75;;
74753;SDS011;63271;53.340;-6.260;2023-11-22T13:19:22;7.78;;;2.17;;
74753;SDS011;63271;53.340;-6.260;2023-11-22T13:21:49;8.35;;;2.28;;
74753;SDS011;63271;53.340;-6.260;2023-11-22T13:24:15;13.00;;;2.53;;
74753;SDS011;63271;53.340;-6.260;2023-11-22T13:26:45;22.20;;;3.78;;
74753;SDS011;63271;53.340;-6.260;2023-11-22T13:29:11;9.60;;;2.25;;
74753;SDS011;63271;53.340;-6.260;2023-11-22T13:31:36;12.73;;;2.67;;
74753;SDS011;63271;53.340;-6.260;2023-11-22T13:34:01;9.32;;;2.08;;
74753;SDS011;63271;53.340;-6.260;2023-11-22T13:36:27;11.38;;;2.10;;
74753;SDS011;63271;53.340;-6.260;2023-11-22T13:38:56;7.07;;;1.85;;
74753;SDS011;63271;53.340;-6.260;2023-11-22T13:41:24;13.55;;;1.55;;
74753;SDS011;63271;53.340;-6.260;2023-11-22T13:43:50;12.73;;;1.42;;
74753;SDS011;63271;53.340;-6.260;2023-11-22T13:46:20;7.70;;;1.65;;
74753;SDS011;63271;53.340;-6.260;2023-11-22T13:51:16;4.40;;;1.60;;
74753;SDS011;63271;53.340;-6.260;2023-11-22T13:53:44;8.05;;;1.42;;
74753;SDS011;63271;53.340;-6.260;2023-11-22T13:56:18;6.40;;;1.83;;
74753;SDS011;63271;53.340;-6.260;2023-11-22T13:58:46;7.75;;;1.63;;
74753;SDS011;63271;53.340;-6.260;2023-11-22T14:01:14;9.60;;;2.35;;
74753;SDS011;63271;53.340;-6.260;2023-11-22T14:03:46;9.85;;;1.45;;
74753;SDS011;63271;53.340;-6.260;2023-11-22T14:06:14;12.88;;;1.90;;
74753;SDS011;63271;53.340;-6.260;2023-11-22T14:08:44;10.70;;;2.05;;
74753;SDS011;63271;53.340;-6.260;2023-11-22T14:11:12;5.75;;;1.52;;
74753;SDS011;63271;53.340;-6.260;2023-11-22T14:13:38;5.40;;;1.58;;
74753;SDS011;63271;53.340;-6.260;2023-11-22T14:16:06;9.88;;;1.77;;
74753;SDS011;63271;53.340;-6.260;2023-11-22T14:18:31;7.18;;;2.30;;
74753;SDS011;63271;53.340;-6.260;2023-11-22T14:20:57;12.57;;;1.80;;
74753;SDS011;63271;53.340;-6.260;2023-11-22T14:23:22;5.22;;;1.70;;
74753;SDS011;63271;53.340;-6.260;2023-11-22T14:25:50;7.65;;;1.95;;
74753;SDS011;63271;53.340;-6.260;2023-11-22T14:28:18;6.38;;;2.38;;
74753;SDS011;63271;53.340;-6.260;2023-11-22T14:30:43;9.57;;;3.38;;
74753;SDS011;63271;53.340;-6.260;2023-11-22T14:33:14;10.32;;;3.53;;
74753;SDS011;63271;53.340;-6.260;2023-11-22T14:35:44;6.55;;;3.22;;
74753;SDS011;63271;53.340;-6.260;2023-11-22T14:38:12;17.52;;;3.03;;
74753;SDS011;63271;53.340;-6.260;2023-11-22T14:40:38;6.88;;;2.60;;
74753;SDS011;63271;53.340;-6.260;2023-11-22T14:43:11;20.58;;;3.42;;
74753;SDS011;63271;53.340;-6.260;2023-11-22T14:45:39;6.55;;;2.33;;
74753;SDS011;63271;53.340;-6.260;2023-11-22T14:48:06;6.97;;;2.53;;
74753;SDS011;63271;53.340;-6.260;2023-11-22T14:50:33;9.10;;;2.08;;
74753;SDS011;63271;53.340;-6.260;2023-11-22T14:53:01;14.02;;;2.00;;
74753;SDS011;63271;53.340;-6.260;2023-11-22T14:55:27;4.65;;;2.20;;
74753;SDS011;63271;53.340;-6.260;2023-11-22T14:57:52;6.45;;;2.10;;
74753;SDS011;63271;53.340;-6.260;2023-11-22T15:00:22;7.07;;;1.77;;
74753;SDS011;63271;53.340;-6.260;2023-11-22T15:02:52;13.27;;;2.33;;
74753;SDS011;63271;53.340;-6.260;2023-11-22T15:07:51;4.57;;;1.73;;
74753;SDS011;63271;53.340;-6.260;2023-11-22T15:10:22;4.13;;;1.60;;
74753;SDS011;63271;53.340;-6.260;2023-11-22T15:12:50;6.00;;;1.85;;
74753;SDS011;63271;53.340;-6.260;2023-11-22T15:15:18;7.93;;;1.77;;
74753;SDS011;63271;53.340;-6.260;2023-11-22T15:17:49;3.17;;;1.45;;
74753;SDS011;63271;53.340;-6.260;2023-11-22T15:20:15;5.50;;;1.70;;
74753;SDS011;63271;53.340;-6.260;2023-11-22T15:22:45;8.48;;;1.70;;
74753;SDS011;63271;53.340;-6.260;2023-11-22T15:25:11;4.90;;;1.92;;
74753;SDS011;63271;53.340;-6.260;2023-11-22T15:27:39;6.38;;;1.75;;
74753;SDS011;63271;53.340;-6.260;2023-11-22T15:30:07;12.13;;;2.00;;
74753;SDS011;63271;53.340;-6.260;2023-11-22T15:32:34;10.27;;;2.40;;
74753;SDS011;63271;53.340;-6.260;2023-11-22T15:35:00;4.03;;;1.58;;
74753;SDS011;63271;53.340;-6.260;2023-11-22T15:37:25;2.95;;;1.35;;
74753;SDS011;63271;53.340;-6.260;2023-11-22T15:39:54;3.88;;;2.03;;
74753;SDS011;63271;53.340;-6.260;2023-11-22T15:42:24;12.00;;;1.85;;
74753;SDS011;63271;53.340;-6.260;2023-11-22T15:44:52;6.18;;;1.58;;
74753;SDS011;63271;53.340;-6.260;2023-11-22T15:47:17;6.28;;;1.98;;
74753;SDS011;63271;53.340;-6.260;2023-11-22T15:49:43;5.38;;;1.90;;
74753;SDS011;63271;53.340;-6.260;2023-11-22T15:52:10;7.55;;;1.98;;
74753;SDS011;63271;53.340;-6.260;2023-11-22T15:54:37;6.72;;;1.50;;
74753;SDS011;63271;53.340;-6.260;2023-11-22T15:57:05;4.85;;;1.70;;
74753;SDS011;63271;53.340;-6.260;2023-11-22T15:59:33;3.50;;;1.75;;
74753;SDS011;63271;53.340;-6.260;2023-11-22T16:01:59;5.20;;;1.70;;
74753;SDS011;63271;53.340;-6.260;2023-11-22T16:04:24;5.55;;;1.80;;
74753;SDS011;63271;53.340;-6.260;2023-11-22T16:06:52;6.72;;;1.70;;
74753;SDS011;63271;53.340;-6.260;2023-11-22T16:09:18;7.50;;;1.42;;
74753;SDS011;63271;53.340;-6.260;2023-11-22T16:11:43;4.68;;;1.50;;
74753;SDS011;63271;53.340;-6.260;2023-11-22T16:14:14;12.00;;;1.80;;
74753;SDS011;63271;53.340;-6.260;2023-11-22T16:16:40;3.88;;;1.58;;
74753;SDS011;63271;53.340;-6.260;2023-11-22T16:19:10;4.47;;;1.65;;
74753;SDS011;63271;53.340;-6.260;2023-11-22T16:21:39;3.92;;;1.77;;
74753;SDS011;63271;53.340;-6.260;2023-11-22T16:24:10;3.30;;;1.58;;
74753;SDS011;63271;53.340;-6.260;2023-11-22T16:26:38;4.75;;;1.77;;
74753;SDS011;63271;53.340;-6.260;2023-11-22T16:29:06;4.70;;;1.83;;
74753;SDS011;63271;53.340;-6.260;2023-11-22T16:31:31;6.63;;;1.58;;
74753;SDS011;63271;53.340;-6.260;2023-11-22T16:33:57;5.35;;;1.30;;
74753;SDS011;63271;53.340;-6.260;2023-11-22T16:36:24;4.57;;;1.60;;
74753;SDS011;63271;53.340;-6.260;2023-11-22T16:38:50;4.07;;;1.80;;
74753;SDS011;63271;53.340;-6.260;2023-11-22T16:41:19;4.40;;;1.70;;
74753;SDS011;63271;53.340;-6.260;2023-11-22T16:43:49;4.65;;;1.40;;
74753;SDS011;63271;53.340;-6.260;2023-11-22T16:46:17;5.82;;;1.50;;
74753;SDS011;63271;53.340;-6.260;2023-11-22T16:48:42;3.95;;;1.20;;
74753;SDS011;63271;53.340;-6.260;2023-11-22T16:51:13;5.15;;;1.17;;
74753;SDS011;63271;53.340;-6.260;2023-11-22T16:53:40;2.63;;;1.23;;
74753;SDS011;63271;53.340;-6.260;2023-11-22T16:56:09;4.47;;;1.50;;
74753;SDS011;63271;53.340;-6.260;2023-11-22T16:58:37;4.00;;;1.20;;
74753;SDS011;63271;53.340;-6.260;2023-11-22T17:01:07;3.25;;;1.05;;
74753;SDS011;63271;53.340;-6.260;2023-11-22T17:03:35;3.97;;;1.30;;
74753;SDS011;63271;53.340;-6.260;2023-11-22T17:06:01;5.55;;;1.30;;
74753;SDS011;63271;53.340;-6.260;2023-11-22T17:08:28;4.45;;;1.02;;
74753;SDS011;63271;53.340;-6.260;2023-11-22T17:10:54;2.83;;;1.52;;
74753;SDS011;63271;53.340;-6.260;2023-11-22T17:13:22;3.63;;;1.50;;
74753;SDS011;63271;53.340;-6.260;2023-11-22T17:15:48;2.13;;;1.10;;
74753;SDS011;63271;53.340;-6.260;2023-11-22T17:18:16;2.80;;;1.20;;
74753;SDS011;63271;53.340;-6.260;2023-11-22T17:20:42;2.88;;;1.50;;
74753;SDS011;63271;53.340;-6.260;2023-11-22T17:23:10;5.10;;;1.50;;
74753;SDS011;63271;53.340;-6.260;2023-11-22T17:25:38;4.72;;;1.48;;
74753;SDS011;63271;53.340;-6.260;2023-11-22T17:28:03;2.40;;;1.40;;
74753;SDS011;63271;53.340;-6.260;2023-11-22T17:30:31;3.83;;;1.48;;
74753;SDS011;63271;53.340;-6.260;2023-11-22T17:32:59;10.63;;;1.50;;
74753;SDS011;63271;53.340;-6.260;2023-11-22T17:35:28;5.15;;;1.45;;
74753;SDS011;63271;53.340;-6.260;2023-11-22T17:37:56;13.77;;;1.90;;
74753;SDS011;63271;53.340;-6.260;2023-11-22T17:40:25;5.20;;;1.80;;
74753;SDS011;63271;53.340;-6.260;2023-11-22T17:42:56;6.00;;;1.45;;
74753;SDS011;63271;53.340;-6.260;2023-11-22T17:45:26;4.78;;;1.58;;
74753;SDS011;63271;53.340;-6.260;2023-11-22T17:47:54;6.13;;;1.70;;
74753;SDS011;63271;53.340;-6.260;2023-11-22T17:50:20;5.78;;;1.98;;
74753;SDS011;63271;53.340;-6.260;2023-11-22T17:52:48;2.38;;;1.60;;
74753;SDS011;63271;53.340;-6.260;2023-11-22T17:55:16;6.38;;;1.95;;
74753;SDS011;63271;53.340;-6.260;2023-11-22T17:57:44;5.90;;;2.10;;
74753;SDS011;63271;53.340;-6.260;2023-11-22T18:00:13;6.35;;;2.13;;
74753;SDS011;63271;53.340;-6.260;2023-11-22T18:02:39;5.15;;;1.95;;
74753;SDS011;63271;53.340;-6.260;2023-11-22T18:05:07;4.20;;;1.98;;
74753;SDS011;63271;53.340;-6.260;2023-11-22T18:07:34;4.45;;;1.67;;
74753;SDS011;63271;53.340;-6.260;2023-11-22T18:10:04;3.35;;;2.10;;
74753;SDS011;63271;53.340;-6.260;2023-11-22T18:12:30;5.47;;;1.70;;
74753;SDS011;63271;53.340;-6.260;2023-11-22T18:14:56;5.20;;;1.60;;
74753;SDS011;63271;53.340;-6.260;2023-11-22T18:17:22;6.50;;;1.98;;
74753;SDS011;63271;53.340;-6.260;2023-11-22T18:19:52;7.13;;;1.65;;
74753;SDS011;63271;53.340;-6.260;2023-11-22T18:22:21;5.05;;;1.67;;
74753;SDS011;63271;53.340;-6.260;2023-11-22T18:24:50;4.63;;;2.00;;
74753;SDS011;63271;53.340;-6.260;2023-11-22T18:27:16;5.22;;;1.77;;
74753;SDS011;63271;53.340;-6.260;2023-11-22T18:29:41;5.57;;;1.70;;
74753;SDS011;63271;53.340;-6.260;2023-11-22T18:32:09;6.53;;;1.63;;
74753;SDS011;63271;53.340;-6.260;2023-11-22T18:34:34;8.35;;;2.50;;
74753;SDS011;63271;53.340;-6.260;2023-11-22T18:37:02;7.53;;;2.08;;
74753;SDS011;63271;53.340;-6.260;2023-11-22T18:39:28;4.57;;;1.70;;
74753;SDS011;63271;53.340;-6.260;2023-11-22T18:41:55;4.22;;;1.63;;
74753;SDS011;63271;53.340;-6.260;2023-11-22T18:44:23;4.85;;;2.00;;
74753;SDS011;63271;53.340;-6.260;2023-11-22T18:46:51;3.17;;;1.70;;
74753;SDS011;63271;53.340;-6.260;2023-11-22T18:49:26;4.82;;;1.58;;
74753;SDS011;63271;53.340;-6.260;2023-11-22T18:51:54;4.28;;;2.05;;
74753;SDS011;63271;53.340;-6.260;2023-11-22T18:54:22;2.53;;;1.45;;
74753;SDS011;63271;53.340;-6.260;2023-11-22T18:56:49;5.03;;;1.60;;
74753;SDS011;63271;53.340;-6.260;2023-11-22T18:59:15;5.40;;;1.77;;
74753;SDS011;63271;53.340;-6.260;2023-11-22T19:01:45;6.63;;;1.80;;
74753;SDS011;63271;53.340;-6.260;2023-11-22T19:04:13;4.70;;;1.50;;
74753;SDS011;63271;53.340;-6.260;2023-11-22T19:06:39;3.92;;;1.45;;
74753;SDS011;63271;53.340;-6.260;2023-11-22T19:09:07;4.28;;;1.60;;
74753;SDS011;63271;53.340;-6.260;2023-11-22T19:11:39;3.65;;;1.80;;
74753;SDS011;63271;53.340;-6.260;2023-11-22T19:14:09;3.33;;;1.38;;
74753;SDS011;63271;53.340;-6.260;2023-11-22T19:16:35;3.00;;;1.40;;
74753;SDS011;63271;53.340;-6.260;2023-11-22T19:19:03;4.00;;;1.60;;
74753;SDS011;63271;53.340;-6.260;2023-11-22T19:21:31;2.95;;;1.50;;
74753;SDS011;63271;53.340;-6.260;2023-11-22T19:23:56;7.43;;;2.13;;
74753;SDS011;63271;53.340;-6.260;2023-11-22T19:26:28;5.05;;;1.70;;
74753;SDS011;63271;53.340;-6.260;2023-11-22T19:28:58;3.72;;;1.70;;
74753;SDS011;63271;53.340;-6.260;2023-11-22T19:31:24;3.33;;;1.40;;
74753;SDS011;63271;53.340;-6.260;2023-11-22T19:33:56;3.40;;;1.35;;
74753;SDS011;63271;53.340;-6.260;2023-11-22T19:36:29;3.17;;;1.50;;
74753;SDS011;63271;53.340;-6.260;2023-11-22T19:38:54;2.35;;;1.42;;
74753;SDS011;63271;53.340;-6.260;2023-11-22T19:41:24;5.55;;;1.45;;
74753;SDS011;63271;53.340;-6.260;2023-11-22T19:43:54;4.85;;;1.65;;
74753;SDS011;63271;53.340;-6.260;2023-11-22T19:46:21;5.63;;;1.45;;
74753;SDS011;63271;53.340;-6.260;2023-11-22T19:48:49;4.50;;;1.60;;
74753;SDS011;63271;53.340;-6.260;2023-11-22T19:51:16;6.85;;;1.52;;
74753;SDS011;63271;53.340;-6.260;2023-11-22T19:53:42;2.45;;;1.02;;
74753;SDS011;63271;53.340;-6.260;2023-11-22T19:56:10;4.38;;;1.48;;
74753;SDS011;63271;53.340;-6.260;2023-11-22T19:58:35;5.95;;;1.70;;
